createdAt,value
2022-11-29T00:27:19.260Z,1012.35
2022-11-29T00:57:19.272Z,1012.28
2022-11-29T01:27:19.267Z,1012.25
2022-11-29T01:57:19.267Z,1012.29
2022-11-29T02:27:19.275Z,1012.19
2022-11-29T02:57:19.278Z,1012.22
2022-11-29T03:27:19.281Z,1012.46
2022-11-29T03:57:19.274Z,1012.56
2022-11-29T04:27:19.292Z,1012.55
2022-11-29T04:57:19.288Z,1012.8
2022-11-29T05:27:19.287Z,1012.97
2022-11-29T05:57:19.300Z,1013.16
2022-11-29T06:27:19.311Z,1013.38
2022-11-29T06:57:19.313Z,1013.61
2022-11-29T07:27:19.322Z,1013.87
2022-11-29T07:57:19.315Z,1014
2022-11-29T08:27:19.300Z,1014.21
2022-11-29T08:57:39.204Z,1014.43
2022-11-29T09:27:19.308Z,1014.67
2022-11-29T09:57:19.319Z,1014.7
2022-11-29T10:27:19.325Z,1014.79
2022-11-29T10:57:19.325Z,1014.71
2022-11-29T11:27:19.350Z,1014.87
2022-11-29T11:57:19.341Z,1014.97
2022-11-29T12:27:19.383Z,1015.07
2022-11-29T12:57:19.349Z,1015.22
2022-11-29T13:27:19.342Z,1015.32
2022-11-29T13:57:19.343Z,1015.44
2022-11-29T14:27:19.353Z,1015.53
2022-11-29T14:57:19.352Z,1015.74
2022-11-29T15:27:19.358Z,1015.94
2022-11-29T15:57:19.356Z,1016.2
2022-11-29T16:27:19.350Z,1016.41
2022-11-29T16:57:19.380Z,1016.55
2022-11-29T17:27:19.368Z,1016.71
2022-11-29T17:57:19.379Z,1016.9
2022-11-29T18:27:19.400Z,1017.11
2022-11-29T18:57:19.395Z,1017.22
2022-11-29T19:27:19.415Z,1017.29
2022-11-29T19:57:19.413Z,1017.39
2022-11-29T20:27:19.428Z,1017.5
2022-11-29T20:57:19.441Z,1017.57
2022-11-29T21:27:19.445Z,1017.75
2022-11-29T21:57:19.447Z,1017.94
2022-11-29T22:27:19.441Z,1018.02
2022-11-29T22:57:19.445Z,1018.14
2022-11-29T23:27:19.442Z,1018.26
2022-11-29T23:57:19.444Z,1018.01
